createdAt,value
2019-03-29T00:00:10.919Z,0
2019-03-29T00:01:10.375Z,0
2019-03-29T00:02:10.040Z,0
2019-03-29T00:03:11.446Z,0
2019-03-29T00:04:09.743Z,0
2019-03-29T00:05:09.979Z,0
2019-03-29T00:06:10.874Z,0
2019-03-29T00:07:10.439Z,0
2019-03-29T00:08:11.490Z,0
2019-03-29T00:09:10.221Z,0
2019-03-29T00:10:09.982Z,0
2019-03-29T00:11:09.944Z,0
2019-03-29T00:12:10.188Z,0
2019-03-29T00:13:10.180Z,0
2019-03-29T00:14:10.016Z,0
2019-03-29T00:15:10.276Z,0
2019-03-29T00:16:09.916Z,0
2019-03-29T00:17:09.920Z,0
2019-03-29T00:18:10.086Z,0
2019-03-29T00:19:10.159Z,0
2019-03-29T00:20:14.706Z,0
2019-03-29T00:21:09.901Z,0
2019-03-29T00:22:10.123Z,0
2019-03-29T00:23:10.179Z,0
2019-03-29T00:24:15.024Z,0
2019-03-29T00:25:09.848Z,0
2019-03-29T00:26:10.124Z,0
2019-03-29T00:27:09.863Z,0
2019-03-29T00:28:10.932Z,0
2019-03-29T00:29:10.516Z,0
2019-03-29T00:30:09.856Z,0
2019-03-29T00:31:09.597Z,0
2019-03-29T00:32:10.796Z,0
2019-03-29T00:33:09.575Z,0
2019-03-29T00:34:09.813Z,0
2019-03-29T00:35:10.663Z,0
2019-03-29T00:36:09.833Z,0
2019-03-29T00:37:09.555Z,0
2019-03-29T00:38:09.825Z,0
2019-03-29T00:39:09.556Z,0
2019-03-29T00:40:09.652Z,0
2019-03-29T00:41:09.784Z,0
2019-03-29T00:42:09.510Z,0
2019-03-29T00:43:09.529Z,0
2019-03-29T00:44:09.504Z,0
2019-03-29T00:45:09.753Z,0
2019-03-29T00:46:10.023Z,0
2019-03-29T00:47:10.843Z,0
2019-03-29T00:48:09.787Z,0
2019-03-29T00:49:09.754Z,0
2019-03-29T00:50:09.749Z,0
2019-03-29T00:51:09.991Z,0
2019-03-29T00:52:09.223Z,0
2019-03-29T00:53:09.720Z,0
2019-03-29T00:54:09.984Z,0
2019-03-29T00:55:09.515Z,0
2019-03-29T00:56:10.742Z,0
2019-03-29T00:57:10.006Z,0
2019-03-29T00:58:09.945Z,0
2019-03-29T00:59:09.429Z,0
2019-03-29T01:00:09.429Z,0
2019-03-29T01:01:09.919Z,0
2019-03-29T01:02:09.664Z,0
2019-03-29T01:03:10.839Z,0
2019-03-29T01:04:09.961Z,0
2019-03-29T01:05:09.418Z,0
2019-03-29T01:06:09.638Z,0
2019-03-29T01:07:10.002Z,0
2019-03-29T01:08:15.444Z,0
2019-03-29T01:09:09.991Z,0
2019-03-29T01:10:09.597Z,0
2019-03-29T01:11:09.373Z,0
2019-03-29T01:12:09.351Z,0
2019-03-29T01:13:09.347Z,0
2019-03-29T01:14:09.588Z,0
2019-03-29T01:15:09.463Z,0
2019-03-29T01:16:09.578Z,0
2019-03-29T01:17:09.331Z,0
2019-03-29T01:18:09.345Z,0
2019-03-29T01:19:10.615Z,0
2019-03-29T01:20:09.045Z,0
2019-03-29T01:21:10.641Z,0
2019-03-29T01:22:10.177Z,0
2019-03-29T01:23:09.535Z,0
2019-03-29T01:24:09.768Z,0
2019-03-29T01:25:10.248Z,0
2019-03-29T01:26:09.514Z,0
2019-03-29T01:27:09.517Z,0
2019-03-29T01:28:09.567Z,0
2019-03-29T01:29:09.275Z,0
2019-03-29T01:30:09.488Z,0
2019-03-29T01:31:09.479Z,0
2019-03-29T01:32:09.702Z,0
2019-03-29T01:33:09.719Z,0
2019-03-29T01:34:09.722Z,0
2019-03-29T01:35:09.773Z,0
2019-03-29T01:36:09.214Z,0
2019-03-29T01:37:09.447Z,0
2019-03-29T01:38:24.540Z,0
2019-03-29T01:39:09.443Z,0
2019-03-29T01:40:09.738Z,0
2019-03-29T01:41:09.458Z,0
2019-03-29T01:42:09.417Z,0
2019-03-29T01:43:09.351Z,0
2019-03-29T01:44:09.180Z,0
2019-03-29T01:45:09.161Z,0
2019-03-29T01:46:09.387Z,0
2019-03-29T01:47:10.883Z,0
2019-03-29T01:48:09.639Z,0
2019-03-29T01:49:09.146Z,0
2019-03-29T01:50:10.738Z,0
2019-03-29T01:51:11.235Z,0
2019-03-29T01:52:09.635Z,0
2019-03-29T01:53:09.363Z,0
2019-03-29T01:54:09.335Z,0
2019-03-29T01:55:09.217Z,0
2019-03-29T01:56:09.607Z,0
2019-03-29T01:57:09.379Z,0
2019-03-29T01:58:09.343Z,0
2019-03-29T01:59:09.065Z,0
2019-03-29T02:00:09.598Z,0
2019-03-29T02:01:10.188Z,0
2019-03-29T02:02:09.072Z,0
2019-03-29T02:03:09.331Z,0
2019-03-29T02:04:12.966Z,0
2019-03-29T02:05:09.041Z,0
2019-03-29T02:06:09.027Z,0
2019-03-29T02:07:09.269Z,0
2019-03-29T02:08:10.035Z,0
2019-03-29T02:09:09.905Z,0
2019-03-29T02:10:09.008Z,0
2019-03-29T02:11:09.000Z,0
2019-03-29T02:12:09.674Z,0
2019-03-29T02:13:09.296Z,0
2019-03-29T02:14:09.279Z,0
2019-03-29T02:15:08.960Z,0
2019-03-29T02:16:11.021Z,0
2019-03-29T02:17:09.214Z,0
2019-03-29T02:18:09.207Z,0
2019-03-29T02:19:10.433Z,0
2019-03-29T02:20:09.203Z,0
2019-03-29T02:21:09.226Z,0
2019-03-29T02:22:09.349Z,0
2019-03-29T02:23:10.139Z,0
2019-03-29T02:24:09.164Z,0
2019-03-29T02:25:09.167Z,0
2019-03-29T02:26:09.410Z,0
2019-03-29T02:27:09.165Z,0
2019-03-29T02:28:09.183Z,0
2019-03-29T02:29:08.650Z,0
2019-03-29T02:30:11.347Z,0
2019-03-29T02:31:08.951Z,0
2019-03-29T02:32:09.393Z,0
2019-03-29T02:33:08.849Z,0
2019-03-29T02:34:09.117Z,0
2019-03-29T02:35:09.731Z,0
2019-03-29T02:36:11.355Z,0
2019-03-29T02:37:09.464Z,0
2019-03-29T02:38:09.399Z,0
2019-03-29T02:39:09.136Z,0
2019-03-29T02:40:09.150Z,0
2019-03-29T02:41:09.092Z,0
2019-03-29T02:42:09.329Z,0
2019-03-29T02:43:10.513Z,0
2019-03-29T02:44:10.302Z,0
2019-03-29T02:45:10.634Z,0
2019-03-29T02:46:09.049Z,0
2019-03-29T02:47:09.053Z,0
2019-03-29T02:48:09.348Z,0
2019-03-29T02:49:09.033Z,0
2019-03-29T02:50:11.049Z,0
2019-03-29T02:51:09.755Z,0
2019-03-29T02:52:09.200Z,0
2019-03-29T02:53:09.273Z,0
2019-03-29T02:54:08.801Z,0
2019-03-29T02:55:08.994Z,0
2019-03-29T02:56:08.979Z,0
2019-03-29T02:57:08.969Z,0
2019-03-29T02:58:09.220Z,0
2019-03-29T02:59:08.981Z,0
2019-03-29T03:00:08.985Z,0
2019-03-29T03:01:09.017Z,0
2019-03-29T03:02:08.981Z,0
2019-03-29T03:03:09.288Z,0
2019-03-29T03:04:08.946Z,0
2019-03-29T03:05:08.971Z,0
2019-03-29T03:06:08.549Z,0
2019-03-29T03:07:08.736Z,0
2019-03-29T03:08:09.180Z,0
2019-03-29T03:09:20.316Z,0
2019-03-29T03:10:09.149Z,0
2019-03-29T03:11:09.092Z,0
2019-03-29T03:12:08.913Z,0
2019-03-29T03:13:08.912Z,0
2019-03-29T03:14:09.115Z,0
2019-03-29T03:15:08.870Z,0
2019-03-29T03:16:08.868Z,0
2019-03-29T03:17:09.188Z,0
2019-03-29T03:18:08.622Z,0
2019-03-29T03:19:08.847Z,0
2019-03-29T03:20:08.843Z,0
2019-03-29T03:21:08.887Z,0
2019-03-29T03:22:09.059Z,0
2019-03-29T03:23:08.840Z,0
2019-03-29T03:24:08.966Z,0
2019-03-29T03:25:09.046Z,0
2019-03-29T03:26:08.858Z,0
2019-03-29T03:27:09.035Z,0
2019-03-29T03:28:09.033Z,0
2019-03-29T03:29:08.818Z,0
2019-03-29T03:30:08.857Z,0
2019-03-29T03:31:08.827Z,0
2019-03-29T03:32:09.016Z,0
2019-03-29T03:33:09.112Z,0
2019-03-29T03:34:08.543Z,0
2019-03-29T03:35:09.091Z,0
2019-03-29T03:36:08.502Z,0
2019-03-29T03:37:08.961Z,0
2019-03-29T03:38:08.963Z,0
2019-03-29T03:39:08.934Z,0
2019-03-29T03:40:08.491Z,0
2019-03-29T03:41:08.687Z,0
2019-03-29T03:42:08.941Z,0
2019-03-29T03:43:08.429Z,0
2019-03-29T03:44:08.938Z,0
2019-03-29T03:45:08.922Z,0
2019-03-29T03:46:08.900Z,0
2019-03-29T03:47:08.895Z,0
2019-03-29T03:48:08.637Z,0
2019-03-29T03:49:08.628Z,0
2019-03-29T03:50:09.285Z,0
2019-03-29T03:51:08.367Z,0
2019-03-29T03:52:10.432Z,0
2019-03-29T03:53:08.840Z,0
2019-03-29T03:54:08.857Z,0
2019-03-29T03:55:08.843Z,0
2019-03-29T03:56:08.876Z,0
2019-03-29T03:57:08.826Z,0
2019-03-29T03:58:08.832Z,0
2019-03-29T03:59:08.806Z,0
2019-03-29T04:00:08.543Z,0
2019-03-29T04:01:08.612Z,0
2019-03-29T04:02:08.522Z,0
2019-03-29T04:03:08.046Z,0
2019-03-29T04:04:08.524Z,0
2019-03-29T04:05:08.796Z,0
2019-03-29T04:06:08.534Z,0
2019-03-29T04:07:08.565Z,0
2019-03-29T04:08:08.520Z,0
2019-03-29T04:09:08.683Z,0
2019-03-29T04:10:08.715Z,0
2019-03-29T04:11:08.546Z,0
2019-03-29T04:12:08.485Z,0
2019-03-29T04:13:08.487Z,0
2019-03-29T04:14:08.751Z,0
2019-03-29T04:15:08.200Z,0
2019-03-29T04:16:08.438Z,0
2019-03-29T04:17:08.683Z,0
2019-03-29T04:18:08.408Z,0
2019-03-29T04:19:08.419Z,0
2019-03-29T04:20:08.417Z,0
2019-03-29T04:21:08.664Z,0
2019-03-29T04:22:08.979Z,0
2019-03-29T04:23:08.408Z,0
2019-03-29T04:24:08.392Z,0
2019-03-29T04:25:08.672Z,0
2019-03-29T04:26:08.630Z,0
2019-03-29T04:27:08.371Z,0
2019-03-29T04:28:08.612Z,0
2019-03-29T04:29:11.719Z,0
2019-03-29T04:30:08.089Z,0
2019-03-29T04:31:08.329Z,0
2019-03-29T04:32:08.579Z,0
2019-03-29T04:33:13.124Z,0
2019-03-29T04:34:08.674Z,0
2019-03-29T04:35:08.346Z,0
2019-03-29T04:36:08.538Z,4
2019-03-29T04:37:08.613Z,0
2019-03-29T04:38:08.770Z,0
2019-03-29T04:39:08.538Z,4
2019-03-29T04:40:15.201Z,4
2019-03-29T04:41:08.263Z,4
2019-03-29T04:42:08.503Z,4
2019-03-29T04:43:08.496Z,4
2019-03-29T04:44:08.254Z,8
2019-03-29T04:45:08.467Z,8
2019-03-29T04:46:08.491Z,8
2019-03-29T04:47:08.444Z,8
2019-03-29T04:48:08.472Z,16
2019-03-29T04:49:08.431Z,12
2019-03-29T04:50:08.182Z,20
2019-03-29T04:51:08.258Z,20
2019-03-29T04:52:07.908Z,28
2019-03-29T04:53:07.885Z,32
2019-03-29T04:54:08.384Z,36
2019-03-29T04:55:07.891Z,40
2019-03-29T04:56:08.146Z,48
2019-03-29T04:57:08.126Z,60
2019-03-29T04:58:07.889Z,64
2019-03-29T04:59:08.105Z,76
2019-03-29T05:00:08.146Z,88
2019-03-29T05:01:07.597Z,100
2019-03-29T05:02:08.094Z,116
2019-03-29T05:03:07.832Z,128
2019-03-29T05:04:08.317Z,148
2019-03-29T05:05:08.064Z,164
2019-03-29T05:06:08.316Z,184
2019-03-29T05:07:08.034Z,204
2019-03-29T05:08:08.033Z,224
2019-03-29T05:09:08.031Z,248
2019-03-29T05:10:20.197Z,276
2019-03-29T05:11:08.008Z,304
2019-03-29T05:12:08.303Z,332
2019-03-29T05:13:07.984Z,360
2019-03-29T05:14:08.263Z,396
2019-03-29T05:15:08.218Z,424
2019-03-29T05:16:07.957Z,460
2019-03-29T05:17:07.975Z,496
2019-03-29T05:18:08.201Z,532
2019-03-29T05:19:07.943Z,572
2019-03-29T05:20:07.689Z,608
2019-03-29T05:21:07.680Z,652
2019-03-29T05:22:11.183Z,692
2019-03-29T05:23:08.181Z,736
2019-03-29T05:24:07.913Z,780
2019-03-29T05:25:08.144Z,824
2019-03-29T05:26:08.147Z,868
2019-03-29T05:27:07.875Z,916
2019-03-29T05:28:07.622Z,964
2019-03-29T05:29:07.871Z,1020
2019-03-29T05:30:08.104Z,1068
2019-03-29T05:31:08.126Z,1124
2019-03-29T05:32:07.846Z,1180
2019-03-29T05:33:07.834Z,1236
2019-03-29T05:34:07.571Z,1292
2019-03-29T05:35:07.832Z,1356
2019-03-29T05:36:07.817Z,1448
2019-03-29T05:37:08.062Z,1612
2019-03-29T05:38:08.062Z,1764
2019-03-29T05:39:07.595Z,1840
2019-03-29T05:40:08.037Z,1884
2019-03-29T05:41:07.779Z,1924
2019-03-29T05:42:08.027Z,1964
2019-03-29T05:43:08.008Z,1996
2019-03-29T05:44:07.743Z,2036
2019-03-29T05:45:08.007Z,2080
2019-03-29T05:46:07.770Z,2144
2019-03-29T05:47:08.051Z,2220
2019-03-29T05:48:07.745Z,2284
2019-03-29T05:49:07.461Z,2356
2019-03-29T05:50:07.974Z,2424
2019-03-29T05:51:07.714Z,2500
2019-03-29T05:52:07.998Z,2556
2019-03-29T05:53:07.835Z,2600
2019-03-29T05:54:07.934Z,2632
2019-03-29T05:55:07.937Z,2664
2019-03-29T05:56:07.655Z,2708
2019-03-29T05:57:07.649Z,2756
2019-03-29T05:58:07.655Z,2808
2019-03-29T05:59:07.897Z,2856
2019-03-29T06:00:07.882Z,2920
2019-03-29T06:01:07.626Z,2980
2019-03-29T06:02:07.871Z,3036
2019-03-29T06:03:09.972Z,3088
2019-03-29T06:04:07.621Z,3120
2019-03-29T06:05:07.846Z,3164
2019-03-29T06:06:07.385Z,3212
2019-03-29T06:07:07.848Z,3276
2019-03-29T06:08:07.615Z,3288
2019-03-29T06:09:07.574Z,3344
2019-03-29T06:10:07.807Z,3396
2019-03-29T06:11:07.812Z,3444
2019-03-29T06:12:07.571Z,3512
2019-03-29T06:13:07.818Z,3536
2019-03-29T06:14:07.575Z,3504
2019-03-29T06:15:07.542Z,3540
2019-03-29T06:16:10.752Z,3564
2019-03-29T06:17:07.532Z,3608
2019-03-29T06:18:07.770Z,3644
2019-03-29T06:19:07.506Z,3672
2019-03-29T06:20:07.747Z,3672
2019-03-29T06:21:07.497Z,3684
2019-03-29T06:22:07.540Z,3712
2019-03-29T06:23:07.252Z,3744
2019-03-29T06:24:07.234Z,3768
2019-03-29T06:25:07.830Z,3800
2019-03-29T06:26:07.504Z,3836
2019-03-29T06:27:07.457Z,4020
2019-03-29T06:28:07.755Z,3916
2019-03-29T06:29:07.489Z,3908
2019-03-29T06:30:07.710Z,3984
2019-03-29T06:31:07.437Z,4024
2019-03-29T06:32:07.731Z,4104
2019-03-29T06:33:07.430Z,4180
2019-03-29T06:34:07.681Z,4248
2019-03-29T06:35:07.437Z,4280
2019-03-29T06:36:07.432Z,4296
2019-03-29T06:37:07.426Z,4348
2019-03-29T06:38:07.640Z,4348
2019-03-29T06:39:07.379Z,4392
2019-03-29T06:40:07.389Z,4436
2019-03-29T06:41:10.287Z,4484
2019-03-29T06:42:07.630Z,4524
2019-03-29T06:43:07.613Z,4584
2019-03-29T06:44:07.606Z,4572
2019-03-29T06:45:07.375Z,4848
2019-03-29T06:46:07.354Z,4852
2019-03-29T06:47:07.617Z,5148
2019-03-29T06:48:07.603Z,5652
2019-03-29T06:49:07.373Z,6168
2019-03-29T06:50:07.075Z,6720
2019-03-29T06:51:07.685Z,7116
2019-03-29T06:52:07.618Z,7480
2019-03-29T06:53:09.205Z,7756
2019-03-29T06:54:07.558Z,8004
2019-03-29T06:55:07.138Z,8372
2019-03-29T06:56:07.337Z,8240
2019-03-29T06:57:07.061Z,8268
2019-03-29T06:58:07.562Z,8344
2019-03-29T06:59:07.083Z,8424
2019-03-29T07:00:07.401Z,8356
2019-03-29T07:01:07.573Z,8196
2019-03-29T07:02:07.549Z,7716
2019-03-29T07:03:08.123Z,7312
2019-03-29T07:04:07.328Z,7080
2019-03-29T07:05:07.384Z,6816
2019-03-29T07:06:07.565Z,6592
2019-03-29T07:07:07.335Z,6608
2019-03-29T07:08:07.570Z,6856
2019-03-29T07:09:07.321Z,7184
2019-03-29T07:10:07.334Z,7392
2019-03-29T07:11:21.251Z,7228
2019-03-29T07:12:07.581Z,7056
2019-03-29T07:13:07.581Z,7520
2019-03-29T07:14:07.338Z,7988
2019-03-29T07:15:07.569Z,8208
2019-03-29T07:16:07.334Z,8152
2019-03-29T07:17:10.161Z,8308
2019-03-29T07:18:07.587Z,8800
2019-03-29T07:19:09.822Z,9144
2019-03-29T07:20:07.315Z,9332
2019-03-29T07:21:15.659Z,9604
2019-03-29T07:22:07.289Z,9572
2019-03-29T07:23:07.608Z,9788
2019-03-29T07:24:07.580Z,9924
2019-03-29T07:25:07.323Z,9784
2019-03-29T07:26:07.560Z,10020
2019-03-29T07:27:07.341Z,9952
2019-03-29T07:28:07.555Z,9964
2019-03-29T07:29:07.086Z,9960
2019-03-29T07:30:07.640Z,8276
2019-03-29T07:31:07.338Z,9916
2019-03-29T07:32:07.580Z,9908
2019-03-29T07:33:07.568Z,9864
2019-03-29T07:34:07.338Z,9704
2019-03-29T07:35:07.342Z,9708
2019-03-29T07:36:07.342Z,9900
2019-03-29T07:37:10.340Z,9960
2019-03-29T07:38:07.580Z,10124
2019-03-29T07:39:07.082Z,10044
2019-03-29T07:40:07.342Z,10052
2019-03-29T07:41:07.345Z,9680
2019-03-29T07:42:07.226Z,10124
2019-03-29T07:43:07.180Z,10132
2019-03-29T07:44:07.347Z,10044
2019-03-29T07:45:10.119Z,9752
2019-03-29T07:46:07.374Z,9868
2019-03-29T07:47:07.601Z,10136
2019-03-29T07:48:07.368Z,10044
2019-03-29T07:49:07.119Z,9680
2019-03-29T07:50:07.367Z,9432
2019-03-29T07:51:07.012Z,6472
2019-03-29T07:52:07.382Z,10052
2019-03-29T07:53:08.470Z,10156
2019-03-29T07:54:07.414Z,9880
2019-03-29T07:55:07.410Z,9712
2019-03-29T07:56:07.389Z,9576
2019-03-29T07:57:07.430Z,8976
2019-03-29T07:58:07.162Z,9588
2019-03-29T07:59:07.443Z,9440
2019-03-29T08:00:07.523Z,9644
2019-03-29T08:01:08.287Z,9620
2019-03-29T08:02:08.458Z,9308
2019-03-29T08:03:07.180Z,9364
2019-03-29T08:04:07.446Z,9264
2019-03-29T08:05:07.459Z,9608
2019-03-29T08:06:07.434Z,9376
2019-03-29T08:07:08.336Z,9136
2019-03-29T08:08:07.199Z,9036
2019-03-29T08:09:21.525Z,8980
2019-03-29T08:10:18.860Z,8988
2019-03-29T08:11:07.323Z,8960
2019-03-29T08:12:07.462Z,8984
2019-03-29T08:13:07.901Z,8928
2019-03-29T08:14:07.480Z,8848
2019-03-29T08:15:09.369Z,8764
2019-03-29T08:16:10.887Z,8720
2019-03-29T08:17:07.234Z,8648
2019-03-29T08:18:08.806Z,8500
2019-03-29T08:19:07.500Z,8504
2019-03-29T08:20:48.426Z,8352
2019-03-29T08:21:07.253Z,8252
2019-03-29T08:22:07.530Z,8176
2019-03-29T08:23:07.511Z,8148
2019-03-29T08:24:07.498Z,8052
2019-03-29T08:25:07.372Z,8068
2019-03-29T08:26:07.579Z,8124
2019-03-29T08:27:07.575Z,8252
2019-03-29T08:28:07.525Z,8364
2019-03-29T08:29:07.830Z,6352
2019-03-29T08:30:07.783Z,8300
2019-03-29T08:31:07.543Z,7820
2019-03-29T08:32:07.556Z,5508
2019-03-29T08:33:07.304Z,8400
2019-03-29T08:34:07.557Z,8460
2019-03-29T08:35:07.337Z,8548
2019-03-29T08:36:07.590Z,7992
2019-03-29T08:37:07.809Z,5276
2019-03-29T08:38:10.655Z,7908
2019-03-29T08:39:10.141Z,9096
2019-03-29T08:40:07.839Z,6756
2019-03-29T08:41:07.323Z,8804
2019-03-29T08:42:07.848Z,8812
2019-03-29T08:43:07.600Z,8664
2019-03-29T08:44:07.586Z,6792
2019-03-29T08:45:07.838Z,5972
2019-03-29T08:46:07.596Z,8992
2019-03-29T08:47:07.389Z,8816
2019-03-29T08:48:11.314Z,9164
2019-03-29T08:49:07.587Z,6480
2019-03-29T08:50:07.843Z,6668
2019-03-29T08:51:07.597Z,6380
2019-03-29T08:52:07.086Z,6140
2019-03-29T08:53:07.628Z,6088
2019-03-29T08:54:09.183Z,6724
2019-03-29T08:55:07.694Z,7436
2019-03-29T08:56:07.821Z,7380
2019-03-29T08:57:10.415Z,9980
2019-03-29T08:58:07.596Z,8344
2019-03-29T08:59:07.858Z,8896
2019-03-29T09:00:07.592Z,11776
2019-03-29T09:01:07.790Z,11512
2019-03-29T09:02:07.599Z,10476
2019-03-29T09:03:07.599Z,11660
2019-03-29T09:04:12.331Z,12628
2019-03-29T09:05:07.334Z,12180
2019-03-29T09:06:07.587Z,10288
2019-03-29T09:07:07.593Z,11156
2019-03-29T09:08:07.615Z,8512
2019-03-29T09:09:07.843Z,7956
2019-03-29T09:10:07.569Z,8008
2019-03-29T09:11:10.105Z,7680
2019-03-29T09:12:21.049Z,7652
2019-03-29T09:13:11.097Z,7592
2019-03-29T09:14:07.580Z,7656
2019-03-29T09:15:11.174Z,7460
2019-03-29T09:16:07.566Z,7264
2019-03-29T09:17:07.563Z,7472
2019-03-29T09:18:07.598Z,7608
2019-03-29T09:19:07.564Z,7588
2019-03-29T09:20:10.495Z,10760
2019-03-29T09:21:07.566Z,9092
2019-03-29T09:22:07.329Z,10704
2019-03-29T09:23:10.225Z,11084
2019-03-29T09:24:21.007Z,7512
2019-03-29T09:25:07.316Z,11256
2019-03-29T09:26:07.589Z,7380
2019-03-29T09:27:07.563Z,6744
2019-03-29T09:28:07.591Z,6524
2019-03-29T09:29:07.567Z,6272
2019-03-29T09:30:09.663Z,5920
2019-03-29T09:31:07.577Z,5808
2019-03-29T09:32:07.316Z,5980
2019-03-29T09:33:07.334Z,5904
2019-03-29T09:34:07.582Z,5796
2019-03-29T09:35:07.811Z,5752
2019-03-29T09:36:09.878Z,5708
2019-03-29T09:37:07.074Z,5724
2019-03-29T09:38:07.807Z,5764
2019-03-29T09:39:07.325Z,5840
2019-03-29T09:40:07.809Z,5904
2019-03-29T09:41:07.821Z,6032
2019-03-29T09:42:09.507Z,6076
2019-03-29T09:43:15.583Z,6252
2019-03-29T09:44:07.559Z,6464
2019-03-29T09:45:07.303Z,6576
2019-03-29T09:46:10.357Z,6468
2019-03-29T09:47:07.298Z,6288
2019-03-29T09:48:07.792Z,6324
2019-03-29T09:49:10.726Z,6660
2019-03-29T09:50:10.049Z,6972
2019-03-29T09:51:07.542Z,9220
2019-03-29T09:52:07.779Z,7724
2019-03-29T09:53:08.529Z,7148
2019-03-29T09:54:07.363Z,6692
2019-03-29T09:55:07.293Z,6636
2019-03-29T09:56:07.546Z,6828
2019-03-29T09:57:09.867Z,7372
2019-03-29T09:58:07.294Z,7776
2019-03-29T09:59:07.577Z,8164
2019-03-29T10:00:25.951Z,7980
2019-03-29T10:01:07.264Z,9192
2019-03-29T10:02:07.800Z,7980
2019-03-29T10:03:07.285Z,8280
2019-03-29T10:04:07.766Z,11020
2019-03-29T10:05:07.655Z,7800
2019-03-29T10:06:07.773Z,10244
2019-03-29T10:07:07.786Z,10332
2019-03-29T10:08:07.541Z,10828
2019-03-29T10:09:07.501Z,10656
2019-03-29T10:10:07.259Z,11280
2019-03-29T10:11:07.264Z,11372
2019-03-29T10:12:07.578Z,11328
2019-03-29T10:13:07.278Z,11672
2019-03-29T10:14:07.539Z,11756
2019-03-29T10:15:07.748Z,12024
2019-03-29T10:16:07.763Z,12272
2019-03-29T10:17:07.497Z,12352
2019-03-29T10:18:07.533Z,12252
2019-03-29T10:19:07.754Z,12188
2019-03-29T10:20:07.763Z,12252
2019-03-29T10:21:07.763Z,12388
2019-03-29T10:22:07.512Z,9976
2019-03-29T10:23:07.788Z,10056
2019-03-29T10:24:07.013Z,11036
2019-03-29T10:25:24.192Z,11284
2019-03-29T10:26:07.765Z,11152
2019-03-29T10:27:07.530Z,10724
2019-03-29T10:28:07.506Z,10504
2019-03-29T10:29:07.500Z,10668
2019-03-29T10:30:07.505Z,10788
2019-03-29T10:31:07.495Z,10688
2019-03-29T10:32:13.690Z,10596
2019-03-29T10:33:07.280Z,10800
2019-03-29T10:34:07.777Z,10924
2019-03-29T10:35:07.503Z,10212
2019-03-29T10:36:07.516Z,10960
2019-03-29T10:37:07.765Z,11168
2019-03-29T10:38:07.282Z,11108
2019-03-29T10:39:07.538Z,10940
2019-03-29T10:40:07.268Z,10928
2019-03-29T10:41:07.257Z,10868
2019-03-29T10:42:07.023Z,10896
2019-03-29T10:43:07.260Z,10716
2019-03-29T10:44:07.342Z,10480
2019-03-29T10:45:07.532Z,10300
2019-03-29T10:46:07.276Z,10376
2019-03-29T10:47:07.508Z,10652
2019-03-29T10:48:07.527Z,10884
2019-03-29T10:49:07.506Z,10984
2019-03-29T10:50:07.758Z,11024
2019-03-29T10:51:10.706Z,10904
2019-03-29T10:52:07.765Z,10728
2019-03-29T10:53:07.516Z,10528
2019-03-29T10:54:07.519Z,10208
2019-03-29T10:55:09.832Z,10020
2019-03-29T10:56:07.758Z,9856
2019-03-29T10:57:07.354Z,9588
2019-03-29T10:58:09.603Z,9280
2019-03-29T10:59:07.518Z,9068
2019-03-29T11:00:07.353Z,9036
2019-03-29T11:01:07.758Z,9068
2019-03-29T11:02:07.615Z,8964
2019-03-29T11:03:07.761Z,8796
2019-03-29T11:04:07.762Z,8612
2019-03-29T11:05:07.562Z,8456
2019-03-29T11:06:07.521Z,8444
2019-03-29T11:07:07.827Z,8344
2019-03-29T11:08:11.287Z,8064
2019-03-29T11:09:07.526Z,7736
2019-03-29T11:10:07.266Z,7588
2019-03-29T11:11:07.270Z,7476
2019-03-29T11:12:07.768Z,7368
2019-03-29T11:13:19.412Z,7352
2019-03-29T11:14:07.550Z,7396
2019-03-29T11:15:11.067Z,7316
2019-03-29T11:16:07.536Z,7192
2019-03-29T11:17:07.592Z,7052
2019-03-29T11:18:07.298Z,6992
2019-03-29T11:19:07.778Z,6956
2019-03-29T11:20:07.764Z,6900
2019-03-29T11:21:07.521Z,6836
2019-03-29T11:22:07.759Z,6864
2019-03-29T11:23:07.772Z,6876
2019-03-29T11:24:09.230Z,6852
2019-03-29T11:25:07.278Z,6856
2019-03-29T11:26:07.423Z,6868
2019-03-29T11:27:07.519Z,6836
2019-03-29T11:28:07.521Z,6812
2019-03-29T11:29:07.271Z,6868
2019-03-29T11:30:07.266Z,6880
2019-03-29T11:31:07.283Z,6828
2019-03-29T11:32:07.506Z,6832
2019-03-29T11:33:07.778Z,6852
2019-03-29T11:34:07.524Z,6824
2019-03-29T11:35:07.513Z,6836
2019-03-29T11:36:07.524Z,6864
2019-03-29T11:37:07.280Z,6876
2019-03-29T11:38:07.528Z,6808
2019-03-29T11:39:07.284Z,6768
2019-03-29T11:40:07.756Z,6744
2019-03-29T11:41:07.743Z,6712
2019-03-29T11:42:10.375Z,6752
2019-03-29T11:43:07.772Z,6796
2019-03-29T11:44:07.755Z,6800
2019-03-29T11:45:07.751Z,6724
2019-03-29T11:46:07.767Z,6624
2019-03-29T11:47:07.497Z,6556
2019-03-29T11:48:15.446Z,6476
2019-03-29T11:49:07.536Z,6440
2019-03-29T11:50:07.752Z,6380
2019-03-29T11:51:20.789Z,6320
2019-03-29T11:52:07.515Z,6276
2019-03-29T11:53:07.748Z,6200
2019-03-29T11:54:07.491Z,6176
2019-03-29T11:55:07.493Z,6152
2019-03-29T11:56:08.034Z,6124
2019-03-29T11:57:07.482Z,6096
2019-03-29T11:58:07.236Z,6076
2019-03-29T11:59:07.498Z,6060
2019-03-29T12:00:07.505Z,6040
2019-03-29T12:01:10.310Z,6060
2019-03-29T12:02:07.242Z,6064
2019-03-29T12:03:11.607Z,6040
2019-03-29T12:04:07.747Z,5988
2019-03-29T12:05:07.240Z,5988
2019-03-29T12:06:07.496Z,5972
2019-03-29T12:07:10.850Z,5972
2019-03-29T12:08:07.267Z,5968
2019-03-29T12:09:07.748Z,5956
2019-03-29T12:10:07.735Z,5924
2019-03-29T12:11:07.482Z,5916
2019-03-29T12:12:07.480Z,5876
2019-03-29T12:13:07.726Z,5840
2019-03-29T12:14:09.614Z,5836
2019-03-29T12:15:07.518Z,5808
2019-03-29T12:16:08.334Z,5760
2019-03-29T12:17:07.490Z,5760
2019-03-29T12:18:07.595Z,5752
2019-03-29T12:19:07.485Z,5708
2019-03-29T12:20:07.497Z,5712
2019-03-29T12:21:07.491Z,5684
2019-03-29T12:22:07.729Z,5696
2019-03-29T12:23:07.499Z,5716
2019-03-29T12:24:07.482Z,5700
2019-03-29T12:25:07.749Z,5684
2019-03-29T12:26:07.578Z,5660
2019-03-29T12:27:07.719Z,5660
2019-03-29T12:28:07.715Z,5648
2019-03-29T12:29:07.748Z,5644
2019-03-29T12:30:07.711Z,5632
2019-03-29T12:31:07.222Z,5620
2019-03-29T12:32:07.794Z,5624
2019-03-29T12:33:07.746Z,5600
2019-03-29T12:34:07.238Z,5604
2019-03-29T12:35:09.815Z,5600
2019-03-29T12:36:07.494Z,5592
2019-03-29T12:37:07.502Z,5584
2019-03-29T12:38:07.707Z,5572
2019-03-29T12:39:07.464Z,5564
2019-03-29T12:40:07.473Z,5548
2019-03-29T12:41:07.721Z,5536
2019-03-29T12:42:07.215Z,5532
2019-03-29T12:43:07.499Z,5520
2019-03-29T12:44:07.728Z,5504
2019-03-29T12:45:07.467Z,5492
2019-03-29T12:46:07.690Z,5508
2019-03-29T12:47:07.467Z,5492
2019-03-29T12:48:07.702Z,5476
2019-03-29T12:49:07.455Z,5464
2019-03-29T12:50:07.707Z,5460
2019-03-29T12:51:07.463Z,5452
2019-03-29T12:52:07.453Z,5444
2019-03-29T12:53:07.455Z,5444
2019-03-29T12:54:07.211Z,5428
2019-03-29T12:55:07.464Z,5420
2019-03-29T12:56:08.637Z,5396
2019-03-29T12:57:09.395Z,5384
2019-03-29T12:58:07.464Z,5376
2019-03-29T12:59:07.449Z,5384
2019-03-29T13:00:06.962Z,5368
2019-03-29T13:01:07.446Z,5356
2019-03-29T13:02:07.701Z,5340
2019-03-29T13:03:07.817Z,5328
2019-03-29T13:04:09.692Z,5336
2019-03-29T13:05:07.194Z,5328
2019-03-29T13:06:07.468Z,5308
2019-03-29T13:07:07.717Z,5308
2019-03-29T13:08:07.210Z,5304
2019-03-29T13:09:07.193Z,5292
2019-03-29T13:10:07.470Z,5280
2019-03-29T13:11:06.972Z,5264
2019-03-29T13:12:07.476Z,5252
2019-03-29T13:13:08.178Z,5240
2019-03-29T13:14:17.718Z,5232
2019-03-29T13:15:07.216Z,5216
2019-03-29T13:16:07.444Z,5196
2019-03-29T13:17:09.812Z,5180
2019-03-29T13:18:07.708Z,5164
2019-03-29T13:19:07.449Z,5156
2019-03-29T13:20:07.709Z,5148
2019-03-29T13:21:07.475Z,5128
2019-03-29T13:22:07.684Z,5108
2019-03-29T13:23:07.444Z,5092
2019-03-29T13:24:07.469Z,5088
2019-03-29T13:25:09.924Z,5080
2019-03-29T13:26:07.456Z,5076
2019-03-29T13:27:07.440Z,5060
2019-03-29T13:28:07.442Z,5060
2019-03-29T13:29:07.430Z,5036
2019-03-29T13:30:07.423Z,5020
2019-03-29T13:31:07.443Z,5016
2019-03-29T13:32:07.483Z,5004
2019-03-29T13:33:07.198Z,5016
2019-03-29T13:34:07.440Z,5012
2019-03-29T13:35:07.260Z,5008
2019-03-29T13:36:07.427Z,5000
2019-03-29T13:37:07.797Z,4980
2019-03-29T13:38:06.961Z,4968
2019-03-29T13:39:07.447Z,4964
2019-03-29T13:40:07.488Z,4964
2019-03-29T13:41:09.456Z,4948
2019-03-29T13:42:07.431Z,4944
2019-03-29T13:43:07.172Z,4928
2019-03-29T13:44:07.409Z,4932
2019-03-29T13:45:07.680Z,4924
2019-03-29T13:46:07.411Z,4916